createdAt,value
2022-12-08T00:01:22.691Z,99167.17
2022-12-08T00:03:51.110Z,99170.73
2022-12-08T00:06:42.885Z,99165.46
2022-12-08T00:09:23.524Z,99165.20
2022-12-08T00:12:20.220Z,99165.61
2022-12-08T00:14:47.791Z,99165.75
2022-12-08T00:17:17.186Z,99163.29
2022-12-08T00:19:45.181Z,99168.08
2022-12-08T00:22:13.558Z,99175.87
2022-12-08T00:24:44.450Z,99175.23
2022-12-08T00:27:13.903Z,99184.09
2022-12-08T00:29:43.612Z,99183.30
2022-12-08T00:32:10.823Z,99185.52
2022-12-08T00:34:37.990Z,99186.76
2022-12-08T00:37:05.117Z,99187.47
2022-12-08T00:39:32.341Z,99188.69
2022-12-08T00:42:14.779Z,99191.81
2022-12-08T00:44:44.467Z,99195.60
2022-12-08T00:47:12.904Z,99197.25
2022-12-08T00:49:40.532Z,99194.80
2022-12-08T00:52:07.582Z,99197.98
2022-12-08T00:54:34.639Z,99201.17
2022-12-08T00:57:01.785Z,99202.98
2022-12-08T00:59:28.877Z,99205.61
2022-12-08T01:01:55.975Z,99207.98
2022-12-08T01:04:24.459Z,99208.41
2022-12-08T01:06:51.963Z,99209.20
2022-12-08T01:09:19.456Z,99210.06
2022-12-08T01:11:47.136Z,99212.19
2022-12-08T01:14:14.731Z,99214.56
2022-12-08T01:16:42.303Z,99216.98
2022-12-08T01:19:12.292Z,99221.03
2022-12-08T01:21:40.704Z,99223.62
2022-12-08T01:24:11.155Z,99231.08
2022-12-08T01:26:38.232Z,99227.08
2022-12-08T01:29:05.428Z,99228.86
2022-12-08T01:31:32.459Z,99233.42
2022-12-08T01:33:59.531Z,99236.60
2022-12-08T01:36:32.364Z,99236.00
2022-12-08T01:39:03.482Z,99237.27
2022-12-08T01:41:33.326Z,99236.58
2022-12-08T01:44:10.714Z,99239.57
2022-12-08T01:46:40.720Z,99242.33
2022-12-08T01:49:22.959Z,99243.42
2022-12-08T01:51:59.222Z,99245.90
2022-12-08T01:54:29.623Z,99250.77
2022-12-08T01:57:05.866Z,99252.41
2022-12-08T01:59:38.210Z,99255.23
2022-12-08T02:02:05.509Z,99254.41
2022-12-08T02:04:32.690Z,99256.59
2022-12-08T02:07:03.695Z,99261.66
2022-12-08T02:09:35.986Z,99261.48
2022-12-08T02:12:03.129Z,99259.88
2022-12-08T02:14:30.257Z,99262.17
2022-12-08T02:17:20.855Z,99259.66
2022-12-08T02:20:22.334Z,99265.11
2022-12-08T02:23:06.229Z,99267.54
2022-12-08T02:25:43.233Z,99267.00
2022-12-08T02:28:41.156Z,99269.10
2022-12-08T02:31:26.949Z,99271.64
2022-12-08T02:33:54.120Z,99273.06
2022-12-08T02:36:32.433Z,99275.30
2022-12-08T02:38:59.552Z,99277.64
2022-12-08T02:41:45.702Z,99278.84
2022-12-08T02:44:23.371Z,99278.13
2022-12-08T02:47:05.373Z,99282.27
2022-12-08T02:49:33.934Z,99281.74
2022-12-08T02:52:27.125Z,99283.40
2022-12-08T02:54:59.539Z,99284.00
2022-12-08T02:57:57.801Z,99285.62
2022-12-08T03:00:29.644Z,99293.93
2022-12-08T03:03:07.382Z,99290.77
2022-12-08T03:06:02.334Z,99293.83
2022-12-08T03:08:51.731Z,99298.95
2022-12-08T03:11:33.244Z,99296.20
2022-12-08T03:14:03.825Z,99297.84
2022-12-08T03:16:35.379Z,99299.73
2022-12-08T03:19:05.345Z,99299.98
2022-12-08T03:21:35.364Z,99302.23
2022-12-08T03:24:07.479Z,99299.30
2022-12-08T03:26:52.022Z,99301.36
2022-12-08T03:29:19.395Z,99305.83
2022-12-08T03:31:54.302Z,99307.61
2022-12-08T03:34:24.502Z,99308.92
2022-12-08T03:36:51.649Z,99312.33
2022-12-08T03:39:18.748Z,99315.23
2022-12-08T03:41:47.230Z,99320.88
2022-12-08T03:44:14.329Z,99320.68
2022-12-08T03:46:41.507Z,99320.00
2022-12-08T03:49:08.538Z,99324.02
2022-12-08T03:51:35.552Z,99326.54
2022-12-08T03:54:02.652Z,99327.85
2022-12-08T03:56:35.309Z,99329.15
2022-12-08T03:59:02.974Z,99331.17
2022-12-08T04:01:30.140Z,99331.98
2022-12-08T04:03:57.779Z,99334.34
2022-12-08T04:06:25.726Z,99333.38
2022-12-08T04:08:53.832Z,99336.92
2022-12-08T04:11:21.283Z,99337.73
2022-12-08T04:13:48.919Z,99336.80
2022-12-08T04:16:22.509Z,99336.38
2022-12-08T04:18:49.700Z,99340.06
2022-12-08T04:21:17.437Z,99341.62
2022-12-08T04:23:45.196Z,99340.67
2022-12-08T04:26:13.425Z,99343.58
2022-12-08T04:28:40.602Z,99337.13
2022-12-08T04:31:08.205Z,99338.66
2022-12-08T04:33:35.517Z,99341.15
2022-12-08T04:36:05.074Z,99338.58
2022-12-08T04:38:32.812Z,99342.72
2022-12-08T04:41:00.097Z,99343.91
2022-12-08T04:43:27.166Z,99346.13
2022-12-08T04:45:54.319Z,99346.12
2022-12-08T04:48:21.424Z,99348.18
2022-12-08T04:50:48.565Z,99353.59
2022-12-08T04:53:15.564Z,99354.16
2022-12-08T04:55:44.944Z,99359.13
2022-12-08T04:58:14.241Z,99362.52
2022-12-08T05:00:41.907Z,99363.19
2022-12-08T05:03:09.668Z,99363.20
2022-12-08T05:05:36.974Z,99359.92
2022-12-08T05:08:04.340Z,99366.05
2022-12-08T05:10:31.913Z,99365.55
2022-12-08T05:12:59.784Z,99366.75
2022-12-08T05:15:27.188Z,99367.34
2022-12-08T05:17:54.550Z,99367.44
2022-12-08T05:20:21.718Z,99368.29
2022-12-08T05:22:48.896Z,99376.04
2022-12-08T05:25:16.199Z,99376.65
2022-12-08T05:27:43.586Z,99383.35
2022-12-08T05:30:11.423Z,99385.77
2022-12-08T05:32:38.553Z,99386.89
2022-12-08T05:35:06.246Z,99386.58
2022-12-08T05:37:33.487Z,99389.30
2022-12-08T05:40:00.920Z,99387.50
2022-12-08T05:42:28.097Z,99390.43
2022-12-08T05:44:55.145Z,99393.70
2022-12-08T05:47:22.276Z,99392.00
2022-12-08T05:49:49.372Z,99393.80
2022-12-08T05:52:17.159Z,99395.70
2022-12-08T05:54:44.543Z,99396.05
2022-12-08T05:57:11.634Z,99402.44
2022-12-08T05:59:39.789Z,99407.92
2022-12-08T06:02:08.949Z,99407.74
2022-12-08T06:04:36.387Z,99407.71
2022-12-08T06:07:03.494Z,99410.66
2022-12-08T06:09:30.594Z,99412.62
2022-12-08T06:11:57.716Z,99415.45
2022-12-08T06:14:24.766Z,99414.48
2022-12-08T06:16:51.892Z,99417.36
2022-12-08T06:19:19.477Z,99417.71
2022-12-08T06:21:46.575Z,99419.01
2022-12-08T06:24:13.625Z,99423.86
2022-12-08T06:26:41.573Z,99422.39
2022-12-08T06:29:09.307Z,99429.51
2022-12-08T06:31:36.516Z,99434.73
2022-12-08T06:34:04.019Z,99439.11
2022-12-08T06:36:31.123Z,99441.35
2022-12-08T06:38:58.603Z,99446.45
2022-12-08T06:41:25.761Z,99448.77
2022-12-08T06:43:57.076Z,99451.75
2022-12-08T06:46:24.517Z,99454.00
2022-12-08T06:48:51.759Z,99458.05
2022-12-08T06:51:21.036Z,99459.93
2022-12-08T06:53:48.137Z,99460.39
2022-12-08T06:56:16.237Z,99462.45
2022-12-08T06:58:46.169Z,99460.59
2022-12-08T07:01:17.778Z,99460.53
2022-12-08T07:03:44.975Z,99460.46
2022-12-08T07:06:18.457Z,99462.87
2022-12-08T07:08:45.605Z,99466.49
2022-12-08T07:11:18.093Z,99464.54
2022-12-08T07:13:48.559Z,99473.88
2022-12-08T07:16:15.641Z,99474.06
2022-12-08T07:18:44.162Z,99478.95
2022-12-08T07:21:13.519Z,99480.86
2022-12-08T07:23:40.975Z,99484.02
2022-12-08T07:26:10.967Z,99484.50
2022-12-08T07:28:39.550Z,99487.43
2022-12-08T07:31:07.794Z,99492.80
2022-12-08T07:33:36.276Z,99492.81
2022-12-08T07:36:06.613Z,99498.02
2022-12-08T07:38:34.554Z,99501.09
2022-12-08T07:41:02.241Z,99500.65
2022-12-08T07:43:29.445Z,99503.20
2022-12-08T07:45:56.656Z,99506.83
2022-12-08T07:48:23.847Z,99504.90
2022-12-08T07:50:50.878Z,99510.44
2022-12-08T07:53:18.058Z,99512.79
2022-12-08T07:55:45.119Z,99516.39
2022-12-08T07:58:12.179Z,99518.04
2022-12-08T08:00:39.247Z,99520.08
2022-12-08T08:03:06.452Z,99525.34
2022-12-08T08:05:33.621Z,99522.72
2022-12-08T08:08:00.868Z,99525.55
2022-12-08T08:10:28.209Z,99524.00
2022-12-08T08:12:55.175Z,99516.67
2022-12-08T08:15:22.354Z,99518.98
2022-12-08T08:17:52.699Z,99522.02
2022-12-08T08:20:21.090Z,99524.81
2022-12-08T08:22:49.705Z,99526.05
2022-12-08T08:25:17.582Z,99524.77
2022-12-08T08:27:44.786Z,99529.65
2022-12-08T08:30:18.343Z,99528.03
2022-12-08T08:32:48.430Z,99526.38
2022-12-08T08:35:15.918Z,99527.44
2022-12-08T08:37:47.205Z,99532.71
2022-12-08T08:40:16.742Z,99532.60
2022-12-08T08:42:43.877Z,99533.75
2022-12-08T08:45:11.499Z,99531.50
2022-12-08T08:47:38.629Z,99533.84
2022-12-08T08:50:06.964Z,99536.98
2022-12-08T08:52:34.340Z,99534.72
2022-12-08T08:55:01.334Z,99538.90
2022-12-08T08:57:28.414Z,99540.59
2022-12-08T08:59:55.534Z,99537.09
2022-12-08T09:02:22.991Z,99537.50
2022-12-08T09:04:50.157Z,99536.77
2022-12-08T09:07:17.470Z,99534.73
2022-12-08T09:09:44.548Z,99535.61
2022-12-08T09:12:13.055Z,99531.02
2022-12-08T09:14:40.254Z,99531.62
2022-12-08T09:17:08.663Z,99534.64
2022-12-08T09:19:35.835Z,99535.65
2022-12-08T09:22:03.116Z,99531.30
2022-12-08T09:24:30.266Z,99526.73
2022-12-08T09:26:57.609Z,99525.03
2022-12-08T09:29:26.220Z,99525.73
2022-12-08T09:31:56.565Z,99527.28
2022-12-08T09:34:23.711Z,99528.77
2022-12-08T09:36:50.780Z,99527.54
2022-12-08T09:39:17.879Z,99526.82
2022-12-08T09:41:50.763Z,99524.85
2022-12-08T09:44:27.107Z,99524.52
2022-12-08T09:46:56.908Z,99524.75
2022-12-08T09:49:39.583Z,99522.20
2022-12-08T09:52:18.202Z,99520.23
2022-12-08T09:54:45.530Z,99519.44
2022-12-08T09:57:17.672Z,99518.13
2022-12-08T09:59:51.505Z,99511.39
2022-12-08T10:02:24.878Z,99507.84
2022-12-08T10:04:56.231Z,99506.95
2022-12-08T10:07:52.986Z,99498.52
2022-12-08T10:10:42.016Z,99497.99
2022-12-08T10:13:23.470Z,99492.29
2022-12-08T10:16:26.725Z,99490.88
2022-12-08T10:19:08.639Z,99489.00
2022-12-08T10:21:35.918Z,99486.91
2022-12-08T10:24:11.955Z,99485.27
2022-12-08T10:26:39.921Z,99481.23
2022-12-08T10:29:12.551Z,99477.95
2022-12-08T10:31:39.768Z,99477.55
2022-12-08T10:34:33.042Z,99477.03
2022-12-08T10:37:00.980Z,99467.79
2022-12-08T10:39:32.646Z,99469.34
2022-12-08T10:42:15.663Z,99465.39
2022-12-08T10:45:00.915Z,99460.52
2022-12-08T10:47:29.809Z,99459.20
2022-12-08T10:50:24.021Z,99455.80
2022-12-08T10:53:16.509Z,99454.00
2022-12-08T10:55:46.453Z,99454.45
2022-12-08T10:58:40.982Z,99453.33
2022-12-08T11:01:14.095Z,99449.71
2022-12-08T11:04:01.056Z,99444.28
2022-12-08T11:06:31.987Z,99437.10
2022-12-08T11:09:02.385Z,99432.72
2022-12-08T11:11:44.363Z,99430.86
2022-12-08T11:14:33.069Z,99430.67
2022-12-08T11:17:10.721Z,99424.27
2022-12-08T11:19:39.455Z,99418.83
2022-12-08T11:22:29.824Z,99418.02
2022-12-08T11:25:03.272Z,99419.29
2022-12-08T11:27:32.894Z,99416.00
2022-12-08T11:30:02.153Z,99417.80
2022-12-08T11:32:29.613Z,99417.30
2022-12-08T11:35:03.031Z,99410.95
2022-12-08T11:37:43.782Z,99409.20
2022-12-08T11:40:26.239Z,99402.71
2022-12-08T11:43:08.596Z,99401.30
2022-12-08T11:45:36.986Z,99394.61
2022-12-08T11:48:19.256Z,99395.80
2022-12-08T11:50:57.823Z,99387.72
2022-12-08T11:53:55.925Z,99385.30
2022-12-08T11:56:44.580Z,99377.05
2022-12-08T11:59:26.552Z,99378.11
2022-12-08T12:01:54.088Z,99376.30
2022-12-08T12:04:45.981Z,99375.68
2022-12-08T12:07:26.543Z,99369.52
2022-12-08T12:10:25.701Z,99363.23
2022-12-08T12:13:14.316Z,99359.67
2022-12-08T12:16:17.810Z,99358.73
2022-12-08T12:18:50.600Z,99354.89
2022-12-08T12:21:24.996Z,99355.17
2022-12-08T12:23:52.092Z,99355.70
2022-12-08T12:26:28.538Z,99353.52
2022-12-08T12:29:13.017Z,99352.34
2022-12-08T12:31:46.980Z,99342.73
2022-12-08T12:34:22.653Z,99340.66
2022-12-08T12:36:54.593Z,99344.02
2022-12-08T12:39:26.309Z,99339.36
2022-12-08T12:41:57.007Z,99342.82
2022-12-08T12:44:37.449Z,99340.27
2022-12-08T12:47:10.485Z,99338.08
2022-12-08T12:49:40.581Z,99338.54
2022-12-08T12:52:10.577Z,99340.52
2022-12-08T12:54:43.226Z,99343.08
2022-12-08T12:57:13.293Z,99344.52
2022-12-08T12:59:55.580Z,99343.24
2022-12-08T13:02:54.182Z,99341.98
2022-12-08T13:05:35.517Z,99340.80
2022-12-08T13:08:08.023Z,99340.34
2022-12-08T13:10:38.678Z,99340.89
2022-12-08T13:13:17.886Z,99338.16
2022-12-08T13:15:55.893Z,99342.64
2022-12-08T13:18:41.269Z,99339.72
2022-12-08T13:21:15.154Z,99341.51
2022-12-08T13:23:47.040Z,99342.57
2022-12-08T13:26:15.830Z,99341.99
2022-12-08T13:29:01.518Z,99342.76
2022-12-08T13:31:50.663Z,99346.45
2022-12-08T13:34:41.820Z,99347.11
2022-12-08T13:37:12.017Z,99347.45
2022-12-08T13:39:39.118Z,99341.96
2022-12-08T13:42:12.337Z,99344.05
2022-12-08T13:45:19.727Z,99343.84
2022-12-08T13:48:13.770Z,99347.65
2022-12-08T13:52:37.000Z,99346.88
2022-12-08T13:54:35.455Z,99351.17
2022-12-08T13:57:00.780Z,99344.36
2022-12-08T13:59:34.192Z,99351.05
2022-12-08T14:02:32.016Z,99347.34
2022-12-08T14:07:47.945Z,99342.45
2022-12-08T14:10:27.753Z,99343.27
2022-12-08T14:13:04.080Z,99341.64
2022-12-08T14:15:38.448Z,99338.34
2022-12-08T14:18:07.116Z,99342.05
2022-12-08T14:20:57.764Z,99338.59
2022-12-08T14:23:22.640Z,99337.70
2022-12-08T14:25:49.789Z,99333.02
2022-12-08T14:28:17.241Z,99335.04
2022-12-08T14:30:44.589Z,99335.68
2022-12-08T14:33:19.101Z,99334.33
2022-12-08T14:35:52.213Z,99334.52
2022-12-08T14:38:21.054Z,99334.78
2022-12-08T14:41:09.377Z,99334.50
2022-12-08T14:43:36.632Z,99336.52
2022-12-08T14:46:18.838Z,99338.54
2022-12-08T14:48:46.093Z,99339.47
2022-12-08T14:51:28.885Z,99345.77
2022-12-08T14:53:59.002Z,99349.26
2022-12-08T14:56:33.825Z,99348.42
2022-12-08T14:59:28.005Z,99344.41
2022-12-08T15:02:14.207Z,99342.80
2022-12-08T15:04:44.288Z,99345.56
2022-12-08T15:07:14.373Z,99340.85
2022-12-08T15:09:48.722Z,99343.23
2022-12-08T15:12:15.866Z,99345.73
2022-12-08T15:14:59.710Z,99348.39
2022-12-08T15:17:42.861Z,99348.73
2022-12-08T15:20:28.700Z,99348.05
2022-12-08T15:22:58.691Z,99350.27
2022-12-08T15:25:25.814Z,99352.34
2022-12-08T15:27:58.971Z,99351.44
2022-12-08T15:30:29.946Z,99349.95
2022-12-08T15:32:57.000Z,99350.80
2022-12-08T15:35:24.148Z,99349.46
2022-12-08T15:37:51.268Z,99347.83
2022-12-08T15:40:23.021Z,99346.63
2022-12-08T15:42:50.050Z,99348.42
2022-12-08T15:45:17.661Z,99345.31
2022-12-08T15:47:45.910Z,99346.81
2022-12-08T15:50:18.108Z,99342.36
2022-12-08T15:52:45.387Z,99340.02
2022-12-08T15:55:14.994Z,99344.98
2022-12-08T16:00:53.738Z,99344.80
2022-12-08T16:09:15.930Z,99348.64
2022-12-08T16:12:07.308Z,99347.85
2022-12-08T16:17:23.561Z,99348.54
2022-12-08T16:19:50.754Z,99349.26
2022-12-08T16:25:18.921Z,99347.77
2022-12-08T16:28:01.483Z,99353.79
2022-12-08T16:30:33.571Z,99348.58
2022-12-08T16:33:00.804Z,99350.50
2022-12-08T16:35:27.979Z,99348.88
2022-12-08T16:37:55.358Z,99351.02
2022-12-08T16:40:22.484Z,99346.91
2022-12-08T16:42:50.390Z,99346.98
2022-12-08T16:45:23.762Z,99350.59
2022-12-08T16:47:53.840Z,99349.59
2022-12-08T16:50:22.886Z,99347.59
2022-12-08T16:52:50.983Z,99339.90
2022-12-08T16:55:19.388Z,99345.98
2022-12-08T16:57:47.588Z,99345.59
2022-12-08T17:00:18.351Z,99348.48
2022-12-08T17:02:45.427Z,99346.86
2022-12-08T17:05:15.209Z,99346.33
2022-12-08T17:07:44.545Z,99347.98
2022-12-08T17:10:14.714Z,99350.96
2022-12-08T17:12:42.524Z,99350.19
2022-12-08T17:15:13.286Z,99350.85
2022-12-08T17:17:40.538Z,99348.35
2022-12-08T17:20:13.321Z,99345.67
2022-12-08T17:22:40.822Z,99352.80
2022-12-08T17:25:08.951Z,99346.67
2022-12-08T17:27:36.794Z,99344.69
2022-12-08T17:30:05.833Z,99345.58
2022-12-08T17:32:33.255Z,99345.23
2022-12-08T17:35:00.603Z,99345.89
2022-12-08T17:37:27.826Z,99345.16
2022-12-08T17:39:55.081Z,99347.77
2022-12-08T17:42:26.066Z,99349.45
2022-12-08T17:44:53.813Z,99350.02
2022-12-08T17:47:21.450Z,99348.42
2022-12-08T17:49:48.777Z,99347.14
2022-12-08T17:52:15.807Z,99346.14
2022-12-08T17:54:42.923Z,99345.54
2022-12-08T17:57:10.177Z,99342.57
2022-12-08T17:59:37.251Z,99339.77
2022-12-08T18:02:04.609Z,99340.41
2022-12-08T18:04:32.141Z,99337.33
2022-12-08T18:07:01.538Z,99336.06
2022-12-08T18:09:31.164Z,99334.48
2022-12-08T18:11:58.535Z,99332.94
2022-12-08T18:14:25.915Z,99329.71
2022-12-08T18:16:53.106Z,99329.78
2022-12-08T18:19:20.349Z,99331.08
2022-12-08T18:21:47.391Z,99322.95
2022-12-08T18:24:22.250Z,99324.70
2022-12-08T18:26:52.414Z,99330.12
2022-12-08T18:29:21.208Z,99329.30
2022-12-08T18:31:48.996Z,99327.66
2022-12-08T18:34:16.100Z,99327.55
2022-12-08T18:36:43.172Z,99326.73
2022-12-08T18:39:27.657Z,99327.23
2022-12-08T18:41:55.190Z,99324.84
2022-12-08T18:44:22.277Z,99321.28
2022-12-08T18:46:49.388Z,99315.48
2022-12-08T18:49:19.100Z,99313.90
2022-12-08T18:51:46.416Z,99310.44
2022-12-08T18:54:13.786Z,99309.16
2022-12-08T18:56:40.907Z,99310.59
2022-12-08T18:59:11.311Z,99313.56
2022-12-08T19:01:40.182Z,99311.46
2022-12-08T19:06:56.544Z,99310.03
2022-12-08T19:09:26.204Z,99308.28
2022-12-08T19:11:53.355Z,99309.04
2022-12-08T19:14:27.241Z,99308.85
2022-12-08T19:16:55.211Z,99303.64
2022-12-08T19:19:22.363Z,99301.75
2022-12-08T19:21:49.536Z,99301.97
2022-12-08T19:24:16.761Z,99300.33
2022-12-08T19:26:44.130Z,99297.42
2022-12-08T19:29:12.192Z,99300.03
2022-12-08T19:31:40.333Z,99297.59
2022-12-08T19:34:09.281Z,99295.05
2022-12-08T19:37:37.905Z,99298.46
2022-12-08T19:40:24.481Z,99299.70
2022-12-08T19:43:10.342Z,99299.13
2022-12-08T19:45:38.175Z,99301.67
2022-12-08T19:48:05.649Z,99302.56
2022-12-08T19:50:39.116Z,99296.23
2022-12-08T19:53:07.425Z,99293.77
2022-12-08T19:55:34.476Z,99293.81
2022-12-08T19:58:02.182Z,99289.68
2022-12-08T20:00:31.176Z,99288.79
2022-12-08T20:02:59.777Z,99288.68
2022-12-08T20:05:26.937Z,99297.00
2022-12-08T20:07:55.908Z,99291.86
2022-12-08T20:10:29.507Z,99290.04
2022-12-08T20:13:17.071Z,99288.36
2022-12-08T20:15:45.057Z,99292.09
2022-12-08T20:18:14.668Z,99284.23
2022-12-08T20:20:43.105Z,99287.85
2022-12-08T20:23:10.860Z,99287.05
2022-12-08T20:25:39.883Z,99290.69
2022-12-08T20:28:07.626Z,99292.98
2022-12-08T20:30:37.804Z,99292.59
2022-12-08T20:33:04.914Z,99294.70
2022-12-08T20:35:32.012Z,99296.52
2022-12-08T20:37:59.145Z,99299.58
2022-12-08T20:40:26.342Z,99301.45
2022-12-08T20:42:53.439Z,99304.21
2022-12-08T20:45:20.594Z,99309.45
2022-12-08T20:47:47.795Z,99311.56
2022-12-08T20:50:15.206Z,99308.12
2022-12-08T20:52:42.447Z,99305.70
2022-12-08T20:55:10.009Z,99308.77
2022-12-08T20:57:37.374Z,99310.06
2022-12-08T21:00:06.807Z,99317.37
2022-12-08T21:02:34.459Z,99315.98
2022-12-08T21:05:01.886Z,99315.25
2022-12-08T21:07:29.548Z,99315.34
2022-12-08T21:09:56.944Z,99318.13
2022-12-08T21:12:24.255Z,99318.89
2022-12-08T21:14:51.499Z,99325.00
2022-12-08T21:17:18.725Z,99322.87
2022-12-08T21:19:45.917Z,99324.66
2022-12-08T21:22:14.024Z,99324.52
2022-12-08T21:24:41.281Z,99324.58
2022-12-08T21:27:08.450Z,99322.98
2022-12-08T21:29:35.915Z,99326.59
2022-12-08T21:32:03.253Z,99328.30
2022-12-08T21:34:31.924Z,99330.16
2022-12-08T21:36:59.419Z,99333.28
2022-12-08T21:39:26.809Z,99337.94
2022-12-08T21:42:12.762Z,99330.83
2022-12-08T21:44:40.487Z,99330.92
2022-12-08T21:47:08.355Z,99328.04
2022-12-08T21:49:35.633Z,99330.84
2022-12-08T21:52:02.967Z,99329.11
2022-12-08T21:54:30.208Z,99332.08
2022-12-08T21:56:57.493Z,99328.55
2022-12-08T21:59:24.570Z,99335.35
2022-12-08T22:01:52.066Z,99333.73
2022-12-08T22:04:21.519Z,99335.73
2022-12-08T22:06:49.144Z,99332.41
2022-12-08T22:09:16.426Z,99333.92
2022-12-08T22:11:44.105Z,99333.73
2022-12-08T22:14:14.838Z,99331.38
2022-12-08T22:16:42.885Z,99331.66
2022-12-08T22:19:10.386Z,99335.08
2022-12-08T22:21:38.445Z,99337.48
2022-12-08T22:24:06.339Z,99334.83
2022-12-08T22:26:33.994Z,99331.69
2022-12-08T22:29:02.070Z,99337.85
2022-12-08T22:31:29.466Z,99341.20
2022-12-08T22:33:59.381Z,99345.27
2022-12-08T22:36:28.309Z,99346.05
2022-12-08T22:38:55.894Z,99346.80
2022-12-08T22:41:23.469Z,99347.94
2022-12-08T22:43:51.433Z,99348.98
2022-12-08T22:46:23.358Z,99349.05
2022-12-08T22:48:51.858Z,99349.95
2022-12-08T22:51:19.477Z,99351.38
2022-12-08T22:53:47.240Z,99351.75
2022-12-08T22:56:16.226Z,99353.60
2022-12-08T22:58:44.517Z,99360.56
2022-12-08T23:01:30.136Z,99361.20
2022-12-08T23:03:59.358Z,99358.10
2022-12-08T23:06:28.001Z,99357.13
2022-12-08T23:08:56.038Z,99357.88
2022-12-08T23:11:26.310Z,99355.80
2022-12-08T23:13:53.659Z,99359.38
2022-12-08T23:16:21.068Z,99354.81
2022-12-08T23:18:48.380Z,99352.62
2022-12-08T23:21:18.133Z,99360.35
2022-12-08T23:23:45.669Z,99356.04
2022-12-08T23:26:26.917Z,99357.60
2022-12-08T23:28:54.495Z,99356.02
2022-12-08T23:31:22.269Z,99354.88
2022-12-08T23:33:49.906Z,99354.36
2022-12-08T23:36:18.870Z,99353.05
2022-12-08T23:38:46.462Z,99349.81
2022-12-08T23:41:15.703Z,99351.34
2022-12-08T23:43:50.302Z,99353.36
2022-12-08T23:46:20.304Z,99353.10
2022-12-08T23:48:48.116Z,99355.18
2022-12-08T23:51:16.324Z,99360.41
2022-12-08T23:53:44.971Z,99358.66
2022-12-08T23:56:15.564Z,99361.36
2022-12-08T23:58:43.640Z,99359.66
